sensor_id;sensor_type;location;lat;lon;timestamp;pressure;altitude;pressure_sealevel;temperature;humidity
58668;BME280;59852;43.086;25.634;2024-02-21T00:02:19;99624.56;;;3.76;100.00
58668;BME280;59852;43.086;25.634;2024-02-21T00:04:45;99617.50;;;3.81;100.00
58668;BME280;59852;43.086;25.634;2024-02-21T00:07:10;99610.47;;;3.86;100.00
58668;BME280;59852;43.086;25.634;2024-02-21T00:09:36;99621.09;;;3.77;100.00
58668;BME280;59852;43.086;25.634;2024-02-21T00:12:01;99622.88;;;3.75;100.00
58668;BME280;59852;43.086;25.634;2024-02-21T00:14:26;99617.72;;;3.75;100.00
58668;BME280;59852;43.086;25.634;2024-02-21T00:16:52;99609.94;;;3.75;100.00
58668;BME280;59852;43.086;25.634;2024-02-21T00:19:17;99610.16;;;3.67;100.00
58668;BME280;59852;43.086;25.634;2024-02-21T00:21:42;99612.53;;;3.75;100.00
58668;BME280;59852;43.086;25.634;2024-02-21T00:24:08;99612.66;;;3.70;100.00
58668;BME280;59852;43.086;25.634;2024-02-21T00:26:33;99618.88;;;3.63;100.00
58668;BME280;59852;43.086;25.634;2024-02-21T00:28:58;99606.84;;;3.62;100.00
58668;BME280;59852;43.086;25.634;2024-02-21T00:31:24;99603.63;;;3.56;100.00
58668;BME280;59852;43.086;25.634;2024-02-21T00:33:49;99603.25;;;3.68;100.00
58668;BME280;59852;43.086;25.634;2024-02-21T00:36:15;99600.88;;;3.60;100.00
58668;BME280;59852;43.086;25.634;2024-02-21T00:38:41;99613.19;;;3.52;100.00
58668;BME280;59852;43.086;25.634;2024-02-21T00:41:06;99606.06;;;3.60;100.00
58668;BME280;59852;43.086;25.634;2024-02-21T00:43:31;99602.72;;;3.57;100.00
58668;BME280;59852;43.086;25.634;2024-02-21T00:45:57;99606.94;;;3.59;100.00
58668;BME280;59852;43.086;25.634;2024-02-21T00:48:22;99600.78;;;3.63;100.00
58668;BME280;59852;43.086;25.634;2024-02-21T00:50:47;99603.28;;;3.66;100.00
58668;BME280;59852;43.086;25.634;2024-02-21T00:53:13;99598.88;;;3.70;100.00
58668;BME280;59852;43.086;25.634;2024-02-21T00:55:38;99592.09;;;3.66;100.00
58668;BME280;59852;43.086;25.634;2024-02-21T00:58:05;99598.91;;;3.68;100.00
58668;BME280;59852;43.086;25.634;2024-02-21T01:00:30;99592.31;;;3.58;100.00
58668;BME280;59852;43.086;25.634;2024-02-21T01:02:56;99588.00;;;3.59;100.00
58668;BME280;59852;43.086;25.634;2024-02-21T01:05:21;99586.53;;;3.50;100.00
58668;BME280;59852;43.086;25.634;2024-02-21T01:07:47;99589.22;;;3.47;100.00
58668;BME280;59852;43.086;25.634;2024-02-21T01:10:13;99590.94;;;3.47;100.00
58668;BME280;59852;43.086;25.634;2024-02-21T01:12:38;99587.47;;;3.48;100.00
58668;BME280;59852;43.086;25.634;2024-02-21T01:15:03;99583.31;;;3.42;100.00
58668;BME280;59852;43.086;25.634;2024-02-21T01:17:29;99592.31;;;3.58;100.00
58668;BME280;59852;43.086;25.634;2024-02-21T01:19:55;99586.31;;;3.58;100.00
58668;BME280;59852;43.086;25.634;2024-02-21T01:22:20;99591.44;;;3.59;100.00
58668;BME280;59852;43.086;25.634;2024-02-21T01:24:45;99590.53;;;3.60;100.00
58668;BME280;59852;43.086;25.634;2024-02-21T01:27:11;99592.22;;;3.61;100.00
58668;BME280;59852;43.086;25.634;2024-02-21T01:29:36;99586.09;;;3.65;100.00
58668;BME280;59852;43.086;25.634;2024-02-21T01:32:02;99583.41;;;3.68;100.00
58668;BME280;59852;43.086;25.634;2024-02-21T01:34:27;99586.56;;;3.49;100.00
58668;BME280;59852;43.086;25.634;2024-02-21T01:36:52;99578.59;;;3.56;100.00
58668;BME280;59852;43.086;25.634;2024-02-21T01:39:18;99583.72;;;3.58;100.00
58668;BME280;59852;43.086;25.634;2024-02-21T01:41:43;99571.00;;;3.50;100.00
58668;BME280;59852;43.086;25.634;2024-02-21T01:44:08;99571.94;;;3.48;100.00
58668;BME280;59852;43.086;25.634;2024-02-21T01:46:34;99579.88;;;3.41;100.00
58668;BME280;59852;43.086;25.634;2024-02-21T01:49:00;99575.91;;;3.30;100.00
58668;BME280;59852;43.086;25.634;2024-02-21T01:51:25;99568.25;;;3.27;100.00
58668;BME280;59852;43.086;25.634;2024-02-21T01:53:51;99569.31;;;3.20;100.00
58668;BME280;59852;43.086;25.634;2024-02-21T01:56:17;99575.38;;;3.19;100.00
58668;BME280;59852;43.086;25.634;2024-02-21T01:58:42;99565.97;;;3.16;100.00
58668;BME280;59852;43.086;25.634;2024-02-21T02:01:08;99572.44;;;3.00;100.00
58668;BME280;59852;43.086;25.634;2024-02-21T02:03:33;99570.69;;;3.00;100.00
58668;BME280;59852;43.086;25.634;2024-02-21T02:06:00;99563.59;;;3.08;100.00
58668;BME280;59852;43.086;25.634;2024-02-21T02:08:25;99568.84;;;3.05;100.00
58668;BME280;59852;43.086;25.634;2024-02-21T02:10:51;99558.38;;;3.10;100.00
58668;BME280;59852;43.086;25.634;2024-02-21T02:13:17;99563.41;;;3.14;100.00
58668;BME280;59852;43.086;25.634;2024-02-21T02:15:45;99556.22;;;3.26;100.00
58668;BME280;59852;43.086;25.634;2024-02-21T02:18:11;99561.28;;;3.29;100.00
58668;BME280;59852;43.086;25.634;2024-02-21T02:20:37;99555.16;;;3.31;100.00
58668;BME280;59852;43.086;25.634;2024-02-21T02:25:40;99553.38;;;3.35;100.00
58668;BME280;59852;43.086;25.634;2024-02-21T02:28:05;99560.97;;;3.39;100.00
58668;BME280;59852;43.086;25.634;2024-02-21T02:30:35;99561.66;;;3.46;100.00
58668;BME280;59852;43.086;25.634;2024-02-21T02:33:01;99566.91;;;3.43;100.00
58668;BME280;59852;43.086;25.634;2024-02-21T02:35:27;99557.19;;;3.51;100.00
58668;BME280;59852;43.086;25.634;2024-02-21T02:37:52;99564.72;;;3.59;100.00
58668;BME280;59852;43.086;25.634;2024-02-21T02:40:18;99561.97;;;3.63;100.00
58668;BME280;59852;43.086;25.634;2024-02-21T02:42:43;99560.44;;;3.58;100.00
58668;BME280;59852;43.086;25.634;2024-02-21T02:45:09;99561.13;;;3.64;100.00
58668;BME280;59852;43.086;25.634;2024-02-21T02:47:34;99566.41;;;3.60;100.00
58668;BME280;59852;43.086;25.634;2024-02-21T02:50:00;99568.78;;;3.67;100.00
58668;BME280;59852;43.086;25.634;2024-02-21T02:52:25;99565.44;;;3.64;100.00
58668;BME280;59852;43.086;25.634;2024-02-21T02:54:51;99572.97;;;3.42;100.00
58668;BME280;59852;43.086;25.634;2024-02-21T02:57:17;99567.88;;;3.39;100.00
58668;BME280;59852;43.086;25.634;2024-02-21T02:59:42;99570.47;;;3.39;100.00
58668;BME280;59852;43.086;25.634;2024-02-21T03:02:12;99567.19;;;3.32;100.00
58668;BME280;59852;43.086;25.634;2024-02-21T03:04:39;99566.34;;;3.32;100.00
58668;BME280;59852;43.086;25.634;2024-02-21T03:07:04;99568.84;;;3.36;100.00
58668;BME280;59852;43.086;25.634;2024-02-21T03:09:30;99574.84;;;3.37;100.00
58668;BME280;59852;43.086;25.634;2024-02-21T03:11:55;99570.91;;;3.24;100.00
58668;BME280;59852;43.086;25.634;2024-02-21T03:14:27;99571.78;;;3.23;100.00
58668;BME280;59852;43.086;25.634;2024-02-21T03:16:52;99574.16;;;3.30;100.00
58668;BME280;59852;43.086;25.634;2024-02-21T03:19:18;99573.06;;;3.39;100.00
58668;BME280;59852;43.086;25.634;2024-02-21T03:21:43;99575.50;;;3.43;100.00
58668;BME280;59852;43.086;25.634;2024-02-21T03:24:08;99571.31;;;3.39;100.00
58668;BME280;59852;43.086;25.634;2024-02-21T03:26:34;99578.09;;;3.43;100.00
58668;BME280;59852;43.086;25.634;2024-02-21T03:28:59;99572.69;;;3.51;100.00
58668;BME280;59852;43.086;25.634;2024-02-21T03:31:24;99575.38;;;3.48;100.00
58668;BME280;59852;43.086;25.634;2024-02-21T03:33:50;99572.97;;;3.42;100.00
58668;BME280;59852;43.086;25.634;2024-02-21T03:36:15;99573.84;;;3.41;100.00
58668;BME280;59852;43.086;25.634;2024-02-21T03:38:40;99577.06;;;3.49;100.00
58668;BME280;59852;43.086;25.634;2024-02-21T03:41:06;99575.16;;;3.56;100.00
58668;BME280;59852;43.086;25.634;2024-02-21T03:43:31;99569.78;;;3.62;100.00
58668;BME280;59852;43.086;25.634;2024-02-21T03:45:56;99570.88;;;3.55;100.00
58668;BME280;59852;43.086;25.634;2024-02-21T03:48:22;99570.88;;;3.55;100.00
58668;BME280;59852;43.086;25.634;2024-02-21T03:50:47;99570.78;;;3.58;100.00
58668;BME280;59852;43.086;25.634;2024-02-21T03:53:12;99568.81;;;3.66;100.00
58668;BME280;59852;43.086;25.634;2024-02-21T03:55:38;99571.41;;;3.66;100.00
58668;BME280;59852;43.086;25.634;2024-02-21T03:58:03;99562.19;;;3.57;100.00
58668;BME280;59852;43.086;25.634;2024-02-21T04:00:28;99564.81;;;3.56;100.00
58668;BME280;59852;43.086;25.634;2024-02-21T04:02:53;99562.50;;;3.47;100.00
58668;BME280;59852;43.086;25.634;2024-02-21T04:05:20;99568.03;;;3.64;100.00
58668;BME280;59852;43.086;25.634;2024-02-21T04:07:46;99565.03;;;3.48;100.00
58668;BME280;59852;43.086;25.634;2024-02-21T04:10:11;99564.09;;;3.51;100.00
58668;BME280;59852;43.086;25.634;2024-02-21T04:12:37;99568.53;;;3.47;100.00
58668;BME280;59852;43.086;25.634;2024-02-21T04:15:03;99573.06;;;3.39;100.00
58668;BME280;59852;43.086;25.634;2024-02-21T04:17:29;99568.78;;;3.38;100.00
58668;BME280;59852;43.086;25.634;2024-02-21T04:19:56;99572.91;;;3.43;100.00
58668;BME280;59852;43.086;25.634;2024-02-21T04:22:26;99566.34;;;3.32;100.00
58668;BME280;59852;43.086;25.634;2024-02-21T04:24:51;99576.91;;;3.26;100.00
58668;BME280;59852;43.086;25.634;2024-02-21T04:27:16;99573.38;;;3.28;100.00
58668;BME280;59852;43.086;25.634;2024-02-21T04:29:42;99566.56;;;3.26;100.00
58668;BME280;59852;43.086;25.634;2024-02-21T04:32:07;99566.50;;;3.27;100.00
58668;BME280;59852;43.086;25.634;2024-02-21T04:34:33;99566.31;;;3.33;100.00
58668;BME280;59852;43.086;25.634;2024-02-21T04:36:59;99570.06;;;3.23;100.00
58668;BME280;59852;43.086;25.634;2024-02-21T04:39:24;99566.81;;;3.16;100.00
58668;BME280;59852;43.086;25.634;2024-02-21T04:41:49;99569.09;;;3.27;100.00
58668;BME280;59852;43.086;25.634;2024-02-21T04:44:15;99568.19;;;3.28;100.00
58668;BME280;59852;43.086;25.634;2024-02-21T04:46:43;99566.50;;;3.27;100.00
58668;BME280;59852;43.086;25.634;2024-02-21T04:49:09;99575.78;;;3.03;100.00
58668;BME280;59852;43.086;25.634;2024-02-21T04:51:34;99579.19;;;3.05;100.00
58668;BME280;59852;43.086;25.634;2024-02-21T04:53:59;99571.16;;;3.14;100.00
58668;BME280;59852;43.086;25.634;2024-02-21T04:56:25;99573.41;;;3.27;100.00
58668;BME280;59852;43.086;25.634;2024-02-21T04:58:50;99576.91;;;3.26;100.00
58668;BME280;59852;43.086;25.634;2024-02-21T05:01:16;99579.50;;;3.24;100.00
58668;BME280;59852;43.086;25.634;2024-02-21T05:03:41;99582.47;;;3.10;100.00
58668;BME280;59852;43.086;25.634;2024-02-21T05:06:07;99580.63;;;3.15;100.00
58668;BME280;59852;43.086;25.634;2024-02-21T05:08:32;99587.69;;;3.09;100.00
58668;BME280;59852;43.086;25.634;2024-02-21T05:10:58;99597.00;;;3.14;100.00
58668;BME280;59852;43.086;25.634;2024-02-21T05:13:23;99597.19;;;3.08;100.00
58668;BME280;59852;43.086;25.634;2024-02-21T05:15:48;99592.97;;;3.04;100.00
58668;BME280;59852;43.086;25.634;2024-02-21T05:18:14;99603.53;;;2.97;100.00
58668;BME280;59852;43.086;25.634;2024-02-21T05:20:39;99604.03;;;2.78;100.00
58668;BME280;59852;43.086;25.634;2024-02-21T05:23:05;99610.00;;;2.80;100.00
58668;BME280;59852;43.086;25.634;2024-02-21T05:25:30;99602.19;;;2.82;100.00
58668;BME280;59852;43.086;25.634;2024-02-21T05:27:55;99607.31;;;2.83;100.00
58668;BME280;59852;43.086;25.634;2024-02-21T05:30:26;99604.50;;;2.93;100.00
58668;BME280;59852;43.086;25.634;2024-02-21T05:32:51;99617.72;;;3.13;100.00
58668;BME280;59852;43.086;25.634;2024-02-21T05:35:17;99614.97;;;3.19;100.00
58668;BME280;59852;43.086;25.634;2024-02-21T05:37:42;99608.03;;;3.21;100.00
58668;BME280;59852;43.086;25.634;2024-02-21T05:40:08;99624.75;;;4.79;100.00
58668;BME280;59852;43.086;25.634;2024-02-21T05:42:33;99612.41;;;5.59;89.39
58668;BME280;59852;43.086;25.634;2024-02-21T05:44:58;99614.16;;;5.82;87.58
58668;BME280;59852;43.086;25.634;2024-02-21T05:47:24;99621.00;;;5.61;88.82
58668;BME280;59852;43.086;25.634;2024-02-21T05:49:49;99620.63;;;4.98;92.20
58668;BME280;59852;43.086;25.634;2024-02-21T05:52:18;99631.31;;;4.64;94.45
58668;BME280;59852;43.086;25.634;2024-02-21T05:54:44;99625.50;;;5.07;93.84
58668;BME280;59852;43.086;25.634;2024-02-21T05:57:09;99633.34;;;4.54;94.36
58668;BME280;59852;43.086;25.634;2024-02-21T05:59:35;99634.94;;;4.58;96.07
58668;BME280;59852;43.086;25.634;2024-02-21T06:02:01;99641.00;;;4.57;95.01
58668;BME280;59852;43.086;25.634;2024-02-21T06:04:28;99639.63;;;4.19;98.67
58668;BME280;59852;43.086;25.634;2024-02-21T06:06:54;99645.59;;;3.95;100.00
58668;BME280;59852;43.086;25.634;2024-02-21T06:09:19;99645.06;;;3.84;100.00
58668;BME280;59852;43.086;25.634;2024-02-21T06:11:44;99645.97;;;3.81;100.00
58668;BME280;59852;43.086;25.634;2024-02-21T06:14:11;99645.59;;;3.95;100.00
58668;BME280;59852;43.086;25.634;2024-02-21T06:16:36;99646.38;;;4.25;100.00
58668;BME280;59852;43.086;25.634;2024-02-21T06:19:02;99643.78;;;4.53;100.00
58668;BME280;59852;43.086;25.634;2024-02-21T06:21:31;99645.06;;;4.66;100.00
58668;BME280;59852;43.086;25.634;2024-02-21T06:23:56;99652.63;;;5.47;97.40
58668;BME280;59852;43.086;25.634;2024-02-21T06:26:21;99656.16;;;6.80;91.76
58668;BME280;59852;43.086;25.634;2024-02-21T06:28:47;99652.38;;;6.45;86.96
58668;BME280;59852;43.086;25.634;2024-02-21T06:31:12;99656.19;;;6.37;88.26
58668;BME280;59852;43.086;25.634;2024-02-21T06:33:37;99649.44;;;5.64;90.50
58668;BME280;59852;43.086;25.634;2024-02-21T06:36:03;99648.69;;;5.84;90.80
58668;BME280;59852;43.086;25.634;2024-02-21T06:38:28;99648.22;;;6.19;88.50
58668;BME280;59852;43.086;25.634;2024-02-21T06:40:53;99653.50;;;5.71;90.65
58668;BME280;59852;43.086;25.634;2024-02-21T06:43:19;99651.88;;;5.92;90.85
58668;BME280;59852;43.086;25.634;2024-02-21T06:45:45;99650.28;;;5.64;91.91
58668;BME280;59852;43.086;25.634;2024-02-21T06:48:16;99651.38;;;5.34;92.36
58668;BME280;59852;43.086;25.634;2024-02-21T06:50:41;99645.81;;;5.19;93.72
58668;BME280;59852;43.086;25.634;2024-02-21T06:53:06;99643.59;;;5.57;92.56
58668;BME280;59852;43.086;25.634;2024-02-21T06:55:32;99640.22;;;5.32;92.60
58668;BME280;59852;43.086;25.634;2024-02-21T06:57:57;99637.66;;;5.30;93.03
58668;BME280;59852;43.086;25.634;2024-02-21T07:00:22;99642.84;;;6.02;90.52
58668;BME280;59852;43.086;25.634;2024-02-21T07:02:48;99644.88;;;6.16;89.73
58668;BME280;59852;43.086;25.634;2024-02-21T07:05:13;99649.31;;;6.14;88.17
58668;BME280;59852;43.086;25.634;2024-02-21T07:07:39;99650.56;;;5.80;90.42
58668;BME280;59852;43.086;25.634;2024-02-21T07:10:05;99646.09;;;6.07;89.97
58668;BME280;59852;43.086;25.634;2024-02-21T07:12:31;99647.91;;;6.05;89.31
58668;BME280;59852;43.086;25.634;2024-02-21T07:14:56;99647.91;;;6.49;87.16
58668;BME280;59852;43.086;25.634;2024-02-21T07:17:21;99648.66;;;6.30;87.02
58668;BME280;59852;43.086;25.634;2024-02-21T07:19:47;99647.63;;;6.35;87.30
58668;BME280;59852;43.086;25.634;2024-02-21T07:22:12;99646.69;;;5.92;89.20
58668;BME280;59852;43.086;25.634;2024-02-21T07:24:37;99643.50;;;6.29;89.02
58668;BME280;59852;43.086;25.634;2024-02-21T07:27:03;99645.50;;;6.44;87.78
58668;BME280;59852;43.086;25.634;2024-02-21T07:29:29;99645.88;;;6.13;87.19
58668;BME280;59852;43.086;25.634;2024-02-21T07:31:55;99651.38;;;6.92;85.54
58668;BME280;59852;43.086;25.634;2024-02-21T07:34:20;99654.47;;;6.79;85.57
58668;BME280;59852;43.086;25.634;2024-02-21T07:36:46;99653.44;;;7.04;85.07
58668;BME280;59852;43.086;25.634;2024-02-21T07:39:11;99652.03;;;6.54;85.19
58668;BME280;59852;43.086;25.634;2024-02-21T07:41:37;99645.56;;;6.21;87.20
58668;BME280;59852;43.086;25.634;2024-02-21T07:44:04;99651.72;;;6.18;88.87
58668;BME280;59852;43.086;25.634;2024-02-21T07:46:30;99650.63;;;6.24;88.78
58668;BME280;59852;43.086;25.634;2024-02-21T07:48:55;99654.50;;;6.36;89.00
58668;BME280;59852;43.086;25.634;2024-02-21T07:51:20;99651.63;;;6.21;89.01
58668;BME280;59852;43.086;25.634;2024-02-21T07:53:46;99648.22;;;6.41;88.77
58668;BME280;59852;43.086;25.634;2024-02-21T07:56:12;99642.88;;;6.66;87.17
58668;BME280;59852;43.086;25.634;2024-02-21T07:58:37;99650.59;;;7.10;85.90
58668;BME280;59852;43.086;25.634;2024-02-21T08:01:03;99640.63;;;8.15;81.61
58668;BME280;59852;43.086;25.634;2024-02-21T08:03:28;99636.41;;;7.75;80.58
58668;BME280;59852;43.086;25.634;2024-02-21T08:05:54;99634.19;;;7.47;82.22
58668;BME280;59852;43.086;25.634;2024-02-21T08:08:19;99643.25;;;7.19;83.06
58668;BME280;59852;43.086;25.634;2024-02-21T08:10:46;99645.94;;;7.16;84.31
58668;BME280;59852;43.086;25.634;2024-02-21T08:13:11;99643.69;;;7.29;83.17
58668;BME280;59852;43.086;25.634;2024-02-21T08:15:36;99641.63;;;7.94;81.48
58668;BME280;59852;43.086;25.634;2024-02-21T08:18:04;99640.28;;;8.04;79.46
58668;BME280;59852;43.086;25.634;2024-02-21T08:20:30;99638.09;;;8.14;80.40
58668;BME280;59852;43.086;25.634;2024-02-21T08:22:55;99645.22;;;7.33;81.04
58668;BME280;59852;43.086;25.634;2024-02-21T08:25:20;99640.16;;;7.30;82.53
58668;BME280;59852;43.086;25.634;2024-02-21T08:27:46;99645.22;;;7.91;81.10
58668;BME280;59852;43.086;25.634;2024-02-21T08:30:11;99639.84;;;8.68;77.05
58668;BME280;59852;43.086;25.634;2024-02-21T08:32:37;99639.53;;;9.26;75.80
58668;BME280;59852;43.086;25.634;2024-02-21T08:35:02;99641.09;;;8.78;75.51
58668;BME280;59852;43.086;25.634;2024-02-21T08:37:28;99635.97;;;8.77;75.81
58668;BME280;59852;43.086;25.634;2024-02-21T08:39:53;99629.09;;;9.26;74.26
58668;BME280;59852;43.086;25.634;2024-02-21T08:42:19;99631.34;;;10.14;72.12
58668;BME280;59852;43.086;25.634;2024-02-21T08:44:44;99637.53;;;10.59;70.31
58668;BME280;59852;43.086;25.634;2024-02-21T08:47:10;99626.09;;;10.46;69.02
58668;BME280;59852;43.086;25.634;2024-02-21T08:49:36;99622.19;;;10.23;68.93
58668;BME280;59852;43.086;25.634;2024-02-21T08:52:02;99609.56;;;11.34;66.85
58668;BME280;59852;43.086;25.634;2024-02-21T08:54:28;99617.81;;;10.83;66.69
58668;BME280;59852;43.086;25.634;2024-02-21T08:56:53;99610.03;;;11.40;65.17
58668;BME280;59852;43.086;25.634;2024-02-21T08:59:19;99614.84;;;10.89;67.04
58668;BME280;59852;43.086;25.634;2024-02-21T09:01:45;99618.44;;;11.03;64.96
58668;BME280;59852;43.086;25.634;2024-02-21T09:04:11;99613.09;;;11.04;64.80
58668;BME280;59852;43.086;25.634;2024-02-21T09:06:36;99615.28;;;11.12;64.88
58668;BME280;59852;43.086;25.634;2024-02-21T09:09:05;99619.44;;;10.40;64.71
58668;BME280;59852;43.086;25.634;2024-02-21T09:11:33;99612.38;;;10.26;64.92
58668;BME280;59852;43.086;25.634;2024-02-21T09:13:58;99611.06;;;10.49;65.85
58668;BME280;59852;43.086;25.634;2024-02-21T09:16:23;99614.03;;;10.12;65.97
58668;BME280;59852;43.086;25.634;2024-02-21T09:18:49;99612.19;;;10.45;65.33
58668;BME280;59852;43.086;25.634;2024-02-21T09:21:14;99616.69;;;10.73;65.69
58668;BME280;59852;43.086;25.634;2024-02-21T09:23:39;99612.13;;;10.61;64.73
58668;BME280;59852;43.086;25.634;2024-02-21T09:26:05;99616.47;;;10.46;64.45
58668;BME280;59852;43.086;25.634;2024-02-21T09:28:30;99614.72;;;10.31;64.71
58668;BME280;59852;43.086;25.634;2024-02-21T09:30:55;99613.03;;;10.14;65.83
58668;BME280;59852;43.086;25.634;2024-02-21T09:33:21;99609.59;;;10.59;64.54
58668;BME280;59852;43.086;25.634;2024-02-21T09:35:46;99600.56;;;10.95;63.38
58668;BME280;59852;43.086;25.634;2024-02-21T09:38:12;99604.09;;;10.94;64.54
58668;BME280;59852;43.086;25.634;2024-02-21T09:40:37;99607.16;;;10.72;63.35
58668;BME280;59852;43.086;25.634;2024-02-21T09:43:04;99605.91;;;10.63;62.88
58668;BME280;59852;43.086;25.634;2024-02-21T09:45:31;99605.44;;;10.71;64.04
58668;BME280;59852;43.086;25.634;2024-02-21T09:50:34;99585.81;;;11.23;63.05
58668;BME280;59852;43.086;25.634;2024-02-21T09:53:01;99589.84;;;11.42;63.01
58668;BME280;59852;43.086;25.634;2024-02-21T09:55:28;99593.59;;;11.24;61.86
58668;BME280;59852;43.086;25.634;2024-02-21T09:57:54;99599.63;;;10.66;62.66
58668;BME280;59852;43.086;25.634;2024-02-21T10:00:19;99594.22;;;10.69;62.83
58668;BME280;59852;43.086;25.634;2024-02-21T10:02:47;99587.75;;;11.05;62.75
58668;BME280;59852;43.086;25.634;2024-02-21T10:05:13;99596.84;;;11.13;63.08
58668;BME280;59852;43.086;25.634;2024-02-21T10:07:38;99590.63;;;10.86;63.30
58668;BME280;59852;43.086;25.634;2024-02-21T10:10:04;99595.53;;;10.62;63.69
58668;BME280;59852;43.086;25.634;2024-02-21T10:12:30;99594.16;;;10.25;64.01
58668;BME280;59852;43.086;25.634;2024-02-21T10:15:05;99595.31;;;10.19;63.85
58668;BME280;59852;43.086;25.634;2024-02-21T10:17:34;99586.56;;;9.89;65.11
58668;BME280;59852;43.086;25.634;2024-02-21T10:20:10;99580.06;;;9.80;65.15
58668;BME280;59852;43.086;25.634;2024-02-21T10:22:37;99578.47;;;9.93;64.87
58668;BME280;59852;43.086;25.634;2024-02-21T10:25:08;99577.38;;;9.97;65.33
58668;BME280;59852;43.086;25.634;2024-02-21T10:27:33;99564.38;;;9.80;66.05
58668;BME280;59852;43.086;25.634;2024-02-21T10:29:58;99576.72;;;9.94;65.28
58668;BME280;59852;43.086;25.634;2024-02-21T10:32:24;99564.97;;;9.69;65.88
58668;BME280;59852;43.086;25.634;2024-02-21T10:35:00;99561.19;;;9.59;66.07
58668;BME280;59852;43.086;25.634;2024-02-21T10:37:25;99558.22;;;9.49;66.41
58668;BME280;59852;43.086;25.634;2024-02-21T10:39:50;99554.13;;;9.77;66.70
58668;BME280;59852;43.086;25.634;2024-02-21T10:42:16;99552.25;;;9.79;66.04
58668;BME280;59852;43.086;25.634;2024-02-21T10:44:46;99548.03;;;9.76;66.65
58668;BME280;59852;43.086;25.634;2024-02-21T10:47:16;99535.47;;;9.83;66.54
58668;BME280;59852;43.086;25.634;2024-02-21T10:49:46;99527.91;;;9.78;66.17
58668;BME280;59852;43.086;25.634;2024-02-21T10:52:17;99532.19;;;9.80;64.86
58668;BME280;59852;43.086;25.634;2024-02-21T10:57:15;99521.88;;;9.92;64.82
58668;BME280;59852;43.086;25.634;2024-02-21T10:59:41;99520.38;;;9.88;65.38
58668;BME280;59852;43.086;25.634;2024-02-21T11:02:08;99513.72;;;9.83;64.61
58668;BME280;59852;43.086;25.634;2024-02-21T11:04:33;99512.72;;;9.69;64.89
58668;BME280;59852;43.086;25.634;2024-02-21T11:07:05;99515.00;;;9.75;64.69
58668;BME280;59852;43.086;25.634;2024-02-21T11:09:31;99502.78;;;9.60;65.54
58668;BME280;59852;43.086;25.634;2024-02-21T11:12:03;99510.81;;;9.57;65.76
58668;BME280;59852;43.086;25.634;2024-02-21T11:14:29;99514.09;;;9.76;66.50
58668;BME280;59852;43.086;25.634;2024-02-21T11:16:57;99513.94;;;9.64;64.04
58668;BME280;59852;43.086;25.634;2024-02-21T11:19:24;99503.13;;;9.86;64.33
58668;BME280;59852;43.086;25.634;2024-02-21T11:21:50;99504.09;;;9.99;63.52
58668;BME280;59852;43.086;25.634;2024-02-21T11:24:31;99494.56;;;10.14;63.98
58668;BME280;59852;43.086;25.634;2024-02-21T11:27:11;99483.31;;;10.12;64.24
58668;BME280;59852;43.086;25.634;2024-02-21T11:29:43;99491.25;;;10.10;63.82
58668;BME280;59852;43.086;25.634;2024-02-21T11:32:11;99495.38;;;10.30;62.16
58668;BME280;59852;43.086;25.634;2024-02-21T11:34:40;99481.00;;;10.37;62.50
58668;BME280;59852;43.086;25.634;2024-02-21T11:37:14;99482.25;;;10.46;62.93
58668;BME280;59852;43.086;25.634;2024-02-21T11:39:42;99475.91;;;10.50;62.86
58668;BME280;59852;43.086;25.634;2024-02-21T11:42:08;99474.50;;;10.44;62.82
58668;BME280;59852;43.086;25.634;2024-02-21T11:44:34;99481.91;;;10.22;62.60
58668;BME280;59852;43.086;25.634;2024-02-21T11:47:00;99481.00;;;10.23;63.58
58668;BME280;59852;43.086;25.634;2024-02-21T11:49:26;99476.22;;;10.29;63.85
58668;BME280;59852;43.086;25.634;2024-02-21T11:52:01;99472.78;;;10.29;63.20
58668;BME280;59852;43.086;25.634;2024-02-21T11:54:29;99475.13;;;10.33;63.89
58668;BME280;59852;43.086;25.634;2024-02-21T11:56:54;99471.59;;;10.34;62.79
58668;BME280;59852;43.086;25.634;2024-02-21T11:59:20;99476.53;;;10.39;63.10
58668;BME280;59852;43.086;25.634;2024-02-21T12:01:46;99467.84;;;10.39;60.80
58668;BME280;59852;43.086;25.634;2024-02-21T12:04:11;99467.06;;;10.52;62.00
58668;BME280;59852;43.086;25.634;2024-02-21T12:06:36;99466.28;;;10.20;57.00
58668;BME280;59852;43.086;25.634;2024-02-21T12:09:02;99464.59;;;10.19;57.04
58668;BME280;59852;43.086;25.634;2024-02-21T12:11:27;99460.22;;;10.20;56.00
58668;BME280;59852;43.086;25.634;2024-02-21T12:14:02;99457.69;;;10.18;56.17
58668;BME280;59852;43.086;25.634;2024-02-21T12:16:29;99453.97;;;10.22;56.06
58668;BME280;59852;43.086;25.634;2024-02-21T12:18:58;99440.13;;;10.20;56.40
58668;BME280;59852;43.086;25.634;2024-02-21T12:21:27;99441.41;;;10.29;57.44
58668;BME280;59852;43.086;25.634;2024-02-21T12:23:55;99440.22;;;10.34;56.66
58668;BME280;59852;43.086;25.634;2024-02-21T12:26:21;99439.53;;;10.31;56.59
58668;BME280;59852;43.086;25.634;2024-02-21T12:28:46;99436.69;;;10.20;56.57
58668;BME280;59852;43.086;25.634;2024-02-21T12:31:12;99438.97;;;10.26;56.83
58668;BME280;59852;43.086;25.634;2024-02-21T12:33:37;99433.97;;;10.21;56.57
58668;BME280;59852;43.086;25.634;2024-02-21T12:36:03;99433.00;;;10.24;57.45
58668;BME280;59852;43.086;25.634;2024-02-21T12:38:29;99432.16;;;10.23;58.05
58668;BME280;59852;43.086;25.634;2024-02-21T12:40:54;99435.69;;;10.22;58.20
58668;BME280;59852;43.086;25.634;2024-02-21T12:43:20;99423.28;;;10.26;57.50
58668;BME280;59852;43.086;25.634;2024-02-21T12:45:45;99426.84;;;10.39;58.20
58668;BME280;59852;43.086;25.634;2024-02-21T12:48:10;99429.47;;;10.39;58.50
58668;BME280;59852;43.086;25.634;2024-02-21T12:50:36;99414.72;;;10.38;59.31
58668;BME280;59852;43.086;25.634;2024-02-21T12:53:01;99421.25;;;10.45;58.92
58668;BME280;59852;43.086;25.634;2024-02-21T12:55:26;99422.34;;;10.41;58.75